Terminal Aerodrome Forecast
Issued by NWS North Platte, NE

Home | Current Version | Previous Version | Text Only | Print | Product List | Glossary Off
Versions: 1 2 3 4 5 6 7 8 9 10 11 12 13 14 15 16 17 18 19 20 21 22

000
FTUS43 KLBF 280520
TAFVTN
TAF
KVTN 280520Z 2806/2906 10008KT P6SM -RA BKN035 OVC060
     FM280900 09012KT 4SM -RA BR OVC015
     FM281200 07015KT 2SM -SN BR OVC009
     FM282100 04015G23KT 3SM -SN BR OVC010
     FM290300 02015KT P6SM OVC025=

USA.gov is the U.S. government's official web portal to all federal, state and local government web resources and services.